createdAt,value
2023-04-14T00:00:02.588Z,109.00
2023-04-14T00:01:03.237Z,109.00
2023-04-14T00:02:04.262Z,109.00
2023-04-14T00:03:04.641Z,109.00
2023-04-14T00:04:05.337Z,109.00
2023-04-14T00:05:05.637Z,109.00
2023-04-14T00:06:06.069Z,109.00
2023-04-14T00:07:06.530Z,109.00
2023-04-14T00:07:16.208Z,109.00
2023-04-14T00:08:16.651Z,109.00
2023-04-14T00:09:17.242Z,109.00
2023-04-14T00:10:17.796Z,109.00
2023-04-14T00:11:18.125Z,109.00
2023-04-14T00:12:18.696Z,109.00
2023-04-14T00:13:19.229Z,109.00
2023-04-14T00:14:20.058Z,109.00
2023-04-14T00:15:20.469Z,109.00
2023-04-14T00:16:21.081Z,109.00
2023-04-14T00:17:21.392Z,109.00
2023-04-14T00:18:21.844Z,109.00
2023-04-14T00:18:32.480Z,109.00
2023-04-14T00:19:32.944Z,109.00
2023-04-14T00:20:33.544Z,109.00
2023-04-14T00:21:34.187Z,109.00
2023-04-14T00:22:34.807Z,109.00
2023-04-14T00:23:35.114Z,109.00
2023-04-14T00:24:35.502Z,109.00
2023-04-14T00:25:35.803Z,109.00
2023-04-14T00:26:36.658Z,109.00
2023-04-14T00:27:37.129Z,109.00
2023-04-14T00:28:37.520Z,109.00
2023-04-14T00:29:37.820Z,109.00
2023-04-14T00:29:46.466Z,109.00
2023-04-14T00:30:47.264Z,109.00
2023-04-14T00:31:47.494Z,109.00
2023-04-14T00:32:48.155Z,109.00
2023-04-14T00:33:48.534Z,109.00
2023-04-14T00:34:48.894Z,109.00
2023-04-14T00:35:49.366Z,109.00
2023-04-14T00:36:49.899Z,109.00
2023-04-14T00:37:50.037Z,109.00
2023-04-14T00:38:50.433Z,109.00
2023-04-14T00:39:50.825Z,109.00
2023-04-14T00:40:51.065Z,109.00
2023-04-14T00:40:59.712Z,109.00
2023-04-14T00:42:00.229Z,109.00
2023-04-14T00:43:00.871Z,109.00
2023-04-14T00:44:01.324Z,109.00
2023-04-14T00:45:01.692Z,109.00
2023-04-14T00:46:02.058Z,109.00
2023-04-14T00:47:02.825Z,109.00
2023-04-14T00:48:03.179Z,109.00
2023-04-14T00:49:03.877Z,109.00
2023-04-14T00:50:03.986Z,109.00
2023-04-14T00:51:04.274Z,109.00
2023-04-14T00:52:04.606Z,109.00
2023-04-14T00:53:04.650Z,109.00
2023-04-14T00:53:13.733Z,109.00
2023-04-14T00:54:14.301Z,109.00
2023-04-14T00:55:15.144Z,109.00
2023-04-14T00:56:15.659Z,109.00
2023-04-14T00:57:16.247Z,109.00
2023-04-14T00:58:16.817Z,109.00
2023-04-14T00:59:17.339Z,109.00
2023-04-14T01:00:17.728Z,109.00
2023-04-14T01:01:18.401Z,109.00
2023-04-14T01:02:19.295Z,109.00
2023-04-14T01:03:19.732Z,109.00
2023-04-14T01:04:20.194Z,109.00
2023-04-14T01:04:44.558Z,109.00
2023-04-14T01:05:31.301Z,109.00
2023-04-14T01:06:31.692Z,109.00
2023-04-14T01:07:32.532Z,109.00
2023-04-14T01:08:32.938Z,109.00
2023-04-14T01:09:33.302Z,109.00
2023-04-14T01:10:33.701Z,109.00
2023-04-14T01:11:34.081Z,109.00
2023-04-14T01:12:34.764Z,109.00
2023-04-14T01:13:35.646Z,109.00
2023-04-14T01:14:36.070Z,109.00
2023-04-14T01:14:45.041Z,109.00
2023-04-14T01:15:45.511Z,109.00
2023-04-14T01:16:46.171Z,109.00
2023-04-14T01:17:46.698Z,109.00
2023-04-14T01:18:47.087Z,109.00
2023-04-14T01:19:47.584Z,109.00
2023-04-14T01:20:49.076Z,109.00
2023-04-14T01:21:48.553Z,109.00
2023-04-14T01:22:49.123Z,109.00
2023-04-14T01:23:49.532Z,109.00
2023-04-14T01:24:49.984Z,109.00
2023-04-14T01:25:50.383Z,109.00
2023-04-14T01:26:00.916Z,109.00
2023-04-14T01:27:01.384Z,109.00
2023-04-14T01:28:01.885Z,109.00
2023-04-14T01:29:03.691Z,109.00
2023-04-14T01:30:03.240Z,109.00
2023-04-14T01:31:03.650Z,109.00
2023-04-14T01:32:04.058Z,109.00
2023-04-14T01:33:04.631Z,109.00
2023-04-14T01:34:04.794Z,109.00
2023-04-14T01:35:05.287Z,109.00
2023-04-14T01:36:05.922Z,109.00
2023-04-14T01:37:06.795Z,109.00
2023-04-14T01:37:17.245Z,109.00
2023-04-14T01:38:18.190Z,109.00
2023-04-14T01:39:18.673Z,109.00
2023-04-14T01:40:19.135Z,109.00
2023-04-14T01:41:19.503Z,109.00
2023-04-14T01:42:19.898Z,109.00
2023-04-14T01:43:20.359Z,109.00
2023-04-14T01:44:20.736Z,109.00
2023-04-14T01:45:21.207Z,109.00
2023-04-14T01:46:21.881Z,109.00
2023-04-14T01:47:22.095Z,109.00
2023-04-14T01:47:30.749Z,109.00
2023-04-14T01:48:31.525Z,109.00
2023-04-14T01:49:32.035Z,109.00
2023-04-14T01:50:32.788Z,109.00
2023-04-14T01:51:33.187Z,109.00
2023-04-14T01:52:33.585Z,109.00
2023-04-14T01:53:34.208Z,109.00
2023-04-14T01:54:34.635Z,109.00
2023-04-14T01:55:35.015Z,109.00
2023-04-14T01:56:35.355Z,109.00
2023-04-14T01:57:35.704Z,109.00
2023-04-14T01:58:36.100Z,109.00
2023-04-14T01:58:46.284Z,109.00
2023-04-14T01:59:46.672Z,109.00
2023-04-14T02:00:47.102Z,109.00
2023-04-14T02:01:47.524Z,109.00
2023-04-14T02:02:48.191Z,109.00
2023-04-14T02:03:48.486Z,109.00
2023-04-14T02:04:48.868Z,109.00
2023-04-14T02:05:49.462Z,109.00
2023-04-14T02:06:49.730Z,109.00
2023-04-14T02:07:50.247Z,109.00
2023-04-14T02:08:51.724Z,109.00
2023-04-14T02:09:51.528Z,109.00
2023-04-14T02:10:52.097Z,109.00
2023-04-14T02:11:00.795Z,109.00
2023-04-14T02:12:01.119Z,109.00
2023-04-14T02:13:01.655Z,109.00
2023-04-14T02:14:01.803Z,109.00
2023-04-14T02:15:02.495Z,109.00
2023-04-14T02:16:02.923Z,109.00
2023-04-14T02:17:03.634Z,109.00
2023-04-14T02:18:04.038Z,109.00
2023-04-14T02:19:04.376Z,109.00
2023-04-14T02:20:04.942Z,109.00
2023-04-14T02:21:05.723Z,109.00
2023-04-14T02:21:14.840Z,109.00
2023-04-14T02:22:15.441Z,109.00
2023-04-14T02:23:15.914Z,109.00
2023-04-14T02:24:16.333Z,109.00
2023-04-14T02:25:16.922Z,109.00
2023-04-14T02:26:17.370Z,109.00
2023-04-14T02:27:18.778Z,109.00
2023-04-14T02:28:18.345Z,109.00
2023-04-14T02:29:18.731Z,109.00
2023-04-14T02:30:19.669Z,109.00
2023-04-14T02:31:20.099Z,109.00
2023-04-14T02:32:20.412Z,109.00
2023-04-14T02:32:29.452Z,109.00
2023-04-14T02:33:29.809Z,109.00
2023-04-14T02:34:30.400Z,109.00
2023-04-14T02:35:30.984Z,109.00
2023-04-14T02:36:31.635Z,109.00
2023-04-14T02:37:32.543Z,109.00
2023-04-14T02:38:33.296Z,109.00
2023-04-14T02:39:33.769Z,109.00
2023-04-14T02:40:34.291Z,109.00
2023-04-14T02:41:34.730Z,109.00
2023-04-14T02:42:35.130Z,109.00
2023-04-14T02:42:43.775Z,109.00
2023-04-14T02:43:43.922Z,109.00
2023-04-14T02:44:44.228Z,109.00
2023-04-14T02:45:45.048Z,109.00
2023-04-14T02:46:45.749Z,109.00
2023-04-14T02:47:46.097Z,109.00
2023-04-14T02:48:46.492Z,109.00
2023-04-14T02:49:47.202Z,109.00
2023-04-14T02:50:47.619Z,109.00
2023-04-14T02:51:47.934Z,109.00
2023-04-14T02:52:48.670Z,109.00
2023-04-14T02:53:50.023Z,109.00
2023-04-14T02:53:58.631Z,109.00
2023-04-14T02:54:59.005Z,109.00
2023-04-14T02:55:59.621Z,109.00
2023-04-14T02:56:59.981Z,109.00
2023-04-14T02:58:00.301Z,109.00
2023-04-14T02:59:01.368Z,109.00
2023-04-14T03:00:01.567Z,109.00
2023-04-14T03:01:02.069Z,109.00
2023-04-14T03:02:02.636Z,109.00
2023-04-14T03:03:03.253Z,109.00
2023-04-14T03:04:03.613Z,109.00
2023-04-14T03:04:12.248Z,109.00
2023-04-14T03:05:12.623Z,109.00
2023-04-14T03:06:13.187Z,109.00
2023-04-14T03:07:13.678Z,109.00
2023-04-14T03:08:13.997Z,109.00
2023-04-14T03:09:14.421Z,109.00
2023-04-14T03:10:15.393Z,109.00
2023-04-14T03:11:16.056Z,109.00
2023-04-14T03:12:16.476Z,109.00
2023-04-14T03:13:16.810Z,109.00
2023-04-14T03:14:17.254Z,109.00
2023-04-14T03:15:17.644Z,109.00
2023-04-14T03:15:27.285Z,109.00
2023-04-14T03:16:27.821Z,109.00
2023-04-14T03:17:28.035Z,109.00
2023-04-14T03:18:28.424Z,109.00
2023-04-14T03:19:28.849Z,109.00
2023-04-14T03:20:29.527Z,109.00
2023-04-14T03:21:31.445Z,109.00
2023-04-14T03:22:30.915Z,109.00
2023-04-14T03:23:31.293Z,109.00
2023-04-14T03:24:31.672Z,109.00
2023-04-14T03:25:32.081Z,109.00
2023-04-14T03:26:33.006Z,109.00
2023-04-14T03:27:33.280Z,109.00
2023-04-14T03:27:41.856Z,109.00
2023-04-14T03:28:42.302Z,109.00
2023-04-14T03:29:42.597Z,109.00
2023-04-14T03:30:43.022Z,109.00
2023-04-14T03:31:43.718Z,109.00
2023-04-14T03:32:44.153Z,109.00
2023-04-14T03:33:44.560Z,109.00
2023-04-14T03:34:45.008Z,109.00
2023-04-14T03:35:45.474Z,109.00
2023-04-14T03:36:46.070Z,109.00
2023-04-14T03:37:46.639Z,109.00
2023-04-14T03:38:47.070Z,109.00
2023-04-14T03:38:55.755Z,109.00
2023-04-14T03:39:56.137Z,109.00
2023-04-14T03:40:56.952Z,109.00
2023-04-14T03:41:57.527Z,109.00
2023-04-14T03:42:57.787Z,109.00
2023-04-14T03:43:58.403Z,109.00
2023-04-14T03:44:59.173Z,109.00
2023-04-14T03:45:59.555Z,109.00
2023-04-14T03:47:00.161Z,109.00
2023-04-14T03:48:00.921Z,109.00
2023-04-14T03:49:01.538Z,109.00
2023-04-14T03:50:01.793Z,109.00
2023-04-14T03:50:12.351Z,109.00
2023-04-14T03:51:12.805Z,109.00
2023-04-14T03:52:13.531Z,109.00
2023-04-14T03:53:13.948Z,109.00
2023-04-14T03:54:14.226Z,109.00
2023-04-14T03:55:14.635Z,109.00
2023-04-14T03:56:15.085Z,109.00
2023-04-14T03:57:15.530Z,109.00
2023-04-14T03:58:15.945Z,109.00
2023-04-14T03:59:16.632Z,109.00
2023-04-14T04:00:16.949Z,109.00
2023-04-14T04:00:25.576Z,109.00
2023-04-14T04:01:25.934Z,109.00
2023-04-14T04:02:26.572Z,109.00
2023-04-14T04:03:26.989Z,109.00
2023-04-14T04:04:27.385Z,109.00
2023-04-14T04:05:27.549Z,109.00
2023-04-14T04:06:27.831Z,109.00
2023-04-14T04:07:28.793Z,109.00
2023-04-14T04:08:29.300Z,109.00
2023-04-14T04:09:29.666Z,109.00
2023-04-14T04:10:30.152Z,109.00
2023-04-14T04:11:30.539Z,109.00
2023-04-14T04:11:40.182Z,109.00
2023-04-14T04:12:40.616Z,109.00
2023-04-14T04:13:40.915Z,109.00
2023-04-14T04:14:41.597Z,109.00
2023-04-14T04:15:42.143Z,109.00
2023-04-14T04:16:42.460Z,109.00
2023-04-14T04:17:42.982Z,109.00
2023-04-14T04:18:43.290Z,109.00
2023-04-14T04:19:44.076Z,109.00
2023-04-14T04:20:44.491Z,109.00
2023-04-14T04:21:44.883Z,109.00
2023-04-14T04:21:54.555Z,109.00
2023-04-14T04:22:54.990Z,109.00
2023-04-14T04:23:55.397Z,109.00
2023-04-14T04:24:55.826Z,109.00
2023-04-14T04:25:56.544Z,109.00
2023-04-14T04:26:57.275Z,109.00
2023-04-14T04:27:57.945Z,109.00
2023-04-14T04:28:58.583Z,109.00
2023-04-14T04:29:58.897Z,109.00
2023-04-14T04:30:59.361Z,109.00
2023-04-14T04:31:59.499Z,109.00
2023-04-14T04:32:08.206Z,109.00
2023-04-14T04:33:08.669Z,109.00
2023-04-14T04:34:09.003Z,109.00
2023-04-14T04:35:09.528Z,109.00
2023-04-14T04:36:09.952Z,109.00
2023-04-14T04:37:10.564Z,109.00
2023-04-14T04:38:11.096Z,109.00
2023-04-14T04:39:11.557Z,109.00
2023-04-14T04:40:11.870Z,109.00
2023-04-14T04:41:12.183Z,109.00
2023-04-14T04:42:12.587Z,109.00
2023-04-14T04:42:21.273Z,109.00
2023-04-14T04:43:21.764Z,109.00
2023-04-14T04:44:22.291Z,109.00
2023-04-14T04:45:22.705Z,109.00
2023-04-14T04:46:23.108Z,109.00
2023-04-14T04:47:23.548Z,109.00
2023-04-14T04:48:24.171Z,109.00
2023-04-14T04:49:24.520Z,109.00
2023-04-14T04:50:24.891Z,109.00
2023-04-14T04:51:25.180Z,109.00
2023-04-14T04:52:25.522Z,109.00
2023-04-14T04:53:26.022Z,109.00
2023-04-14T04:54:26.385Z,109.00
2023-04-14T04:54:36.471Z,109.00
2023-04-14T04:55:37.216Z,109.00
2023-04-14T04:56:37.513Z,109.00
2023-04-14T04:57:37.825Z,109.00
2023-04-14T04:58:38.340Z,109.00
2023-04-14T04:59:38.665Z,109.00
2023-04-14T05:00:39.001Z,109.00
2023-04-14T05:01:39.355Z,109.00
2023-04-14T05:02:39.771Z,109.00
2023-04-14T05:03:40.137Z,109.00
2023-04-14T05:04:40.950Z,109.00
2023-04-14T05:04:49.611Z,109.00
2023-04-14T05:05:50.233Z,109.00
2023-04-14T05:06:50.614Z,109.00
2023-04-14T05:07:50.967Z,109.00
2023-04-14T05:08:51.796Z,109.00
2023-04-14T05:09:52.088Z,109.00
2023-04-14T05:10:53.491Z,109.00
2023-04-14T05:11:52.828Z,109.00
2023-04-14T05:12:53.313Z,109.00
2023-04-14T05:13:54.311Z,109.00
2023-04-14T05:14:54.779Z,109.00
2023-04-14T05:15:05.407Z,109.00
2023-04-14T05:16:05.820Z,109.00
2023-04-14T05:17:06.222Z,109.00
2023-04-14T05:18:06.696Z,109.00
2023-04-14T05:19:07.120Z,109.00
2023-04-14T05:20:07.554Z,109.00
2023-04-14T05:21:07.881Z,109.00
2023-04-14T05:22:08.284Z,109.00
2023-04-14T05:23:09.096Z,109.00
2023-04-14T05:24:09.584Z,109.00
2023-04-14T05:25:09.955Z,109.00
2023-04-14T05:26:31.047Z,109.00
2023-04-14T05:27:19.454Z,109.00
2023-04-14T05:28:19.994Z,109.00
2023-04-14T05:29:20.527Z,109.00
2023-04-14T05:30:20.817Z,109.00
2023-04-14T05:31:21.175Z,109.00
2023-04-14T05:32:21.619Z,109.00
2023-04-14T05:33:22.034Z,109.00
2023-04-14T05:34:22.525Z,109.00
2023-04-14T05:35:22.853Z,109.00
2023-04-14T05:36:23.151Z,109.00
2023-04-14T05:37:23.412Z,109.00
2023-04-14T05:37:35.695Z,109.00
2023-04-14T05:38:35.434Z,109.00
2023-04-14T05:39:34.795Z,109.00
2023-04-14T05:40:35.148Z,109.00
2023-04-14T05:41:35.485Z,109.00
2023-04-14T05:42:35.841Z,109.00
2023-04-14T05:43:36.187Z,109.00
2023-04-14T05:44:36.696Z,109.00
2023-04-14T05:45:37.035Z,109.00
2023-04-14T05:46:37.376Z,109.00
2023-04-14T05:47:37.715Z,109.00
2023-04-14T05:48:38.174Z,109.00
2023-04-14T05:48:46.782Z,109.00
2023-04-14T05:49:47.257Z,109.00
2023-04-14T05:50:47.566Z,109.00
2023-04-14T05:51:47.819Z,109.00
2023-04-14T05:52:48.002Z,109.00
2023-04-14T05:53:48.729Z,109.00
2023-04-14T05:54:49.194Z,109.00
2023-04-14T05:55:49.463Z,109.00
2023-04-14T05:56:49.880Z,109.00
2023-04-14T05:57:50.230Z,109.00
2023-04-14T05:58:50.519Z,109.00
2023-04-14T05:59:50.985Z,109.00
2023-04-14T05:59:59.610Z,109.00
2023-04-14T06:00:59.954Z,109.00
2023-04-14T06:02:00.308Z,109.00
2023-04-14T06:03:00.904Z,109.00
2023-04-14T06:04:01.625Z,109.00
2023-04-14T06:05:01.906Z,109.00
2023-04-14T06:06:02.126Z,109.00
2023-04-14T06:07:02.541Z,109.00
2023-04-14T06:08:02.952Z,109.00
2023-04-14T06:09:03.350Z,109.00
2023-04-14T06:10:04.089Z,109.00
2023-04-14T06:11:03.893Z,109.00
2023-04-14T06:11:13.320Z,109.00
2023-04-14T06:12:13.594Z,109.00
2023-04-14T06:13:14.008Z,109.00
2023-04-14T06:14:14.326Z,109.00
2023-04-14T06:15:14.845Z,109.00
2023-04-14T06:16:15.170Z,109.00
2023-04-14T06:17:15.450Z,109.00
2023-04-14T06:18:15.931Z,109.00
2023-04-14T06:19:16.463Z,109.00
2023-04-14T06:20:16.901Z,109.00
2023-04-14T06:21:17.250Z,109.00
2023-04-14T06:21:25.930Z,109.00
2023-04-14T06:22:26.357Z,109.00
2023-04-14T06:23:26.706Z,109.00
2023-04-14T06:24:26.992Z,109.00
2023-04-14T06:25:27.396Z,109.00
2023-04-14T06:26:27.690Z,109.00
2023-04-14T06:27:28.108Z,109.00
2023-04-14T06:28:28.424Z,109.00
2023-04-14T06:29:28.738Z,109.00
2023-04-14T06:30:29.380Z,109.00
2023-04-14T06:31:30.162Z,109.00
2023-04-14T06:32:31.144Z,109.00
2023-04-14T06:32:39.782Z,109.00
2023-04-14T06:33:40.114Z,109.00
2023-04-14T06:34:40.506Z,106.08
2023-04-14T06:35:40.978Z,107.11
2023-04-14T06:36:41.496Z,109.00
2023-04-14T06:37:42.889Z,109.00
2023-04-14T06:38:42.220Z,109.00
2023-04-14T06:39:42.616Z,106.77
2023-04-14T06:40:42.981Z,104.99
2023-04-14T06:41:43.626Z,104.46
2023-04-14T06:42:44.084Z,103.20
2023-04-14T06:43:44.420Z,99.42
2023-04-14T06:43:53.035Z,95.34
2023-04-14T06:44:53.360Z,95.34
2023-04-14T06:45:54.328Z,96.57
2023-04-14T06:46:56.891Z,96.94
2023-04-14T06:47:55.150Z,90.98
2023-04-14T06:48:55.075Z,87.67
2023-04-14T06:49:55.404Z,85.42
2023-04-14T06:50:56.403Z,84.99
2023-04-14T06:51:56.789Z,79.04
2023-04-14T06:52:57.287Z,83.85
2023-04-14T06:53:57.704Z,81.10
2023-04-14T06:54:58.097Z,86.01
2023-04-14T06:55:09.754Z,85.91
2023-04-14T06:56:10.486Z,86.23
2023-04-14T06:57:11.280Z,88.56
2023-04-14T06:58:11.683Z,93.67
2023-04-14T06:59:12.393Z,90.64
2023-04-14T07:00:12.866Z,98.64
2023-04-14T07:01:14.560Z,100.94
2023-04-14T07:02:13.961Z,98.83
2023-04-14T07:03:14.697Z,98.15
2023-04-14T07:04:15.645Z,96.29
2023-04-14T07:05:15.966Z,97.88
2023-04-14T07:06:16.499Z,98.40
2023-04-14T07:06:25.149Z,94.96
2023-04-14T07:07:25.578Z,96.30
2023-04-14T07:08:26.132Z,94.47
2023-04-14T07:09:26.772Z,89.62
2023-04-14T07:10:27.061Z,88.91
2023-04-14T07:11:27.675Z,94.46
2023-04-14T07:12:28.054Z,93.24
2023-04-14T07:13:28.468Z,90.15
2023-04-14T07:14:29.048Z,91.94
2023-04-14T07:15:29.662Z,95.24
2023-04-14T07:16:30.183Z,95.66
2023-04-14T07:17:30.514Z,92.93
2023-04-14T07:17:39.082Z,92.45
2023-04-14T07:18:39.305Z,92.12
2023-04-14T07:19:39.630Z,91.38
2023-04-14T07:20:39.977Z,87.54
2023-04-14T07:21:40.388Z,89.32
2023-04-14T07:22:40.764Z,85.79
2023-04-14T07:23:41.087Z,88.43
2023-04-14T07:24:41.182Z,88.21
2023-04-14T07:25:41.611Z,83.90
2023-04-14T07:26:42.032Z,80.40
2023-04-14T07:27:52.686Z,81.80
2023-04-14T07:28:02.631Z,83.74
2023-04-14T07:28:51.362Z,83.24
2023-04-14T07:29:51.808Z,81.22
2023-04-14T07:30:52.277Z,80.65
2023-04-14T07:31:52.830Z,80.92
2023-04-14T07:32:53.662Z,78.01
2023-04-14T07:33:54.066Z,76.46
2023-04-14T07:34:54.430Z,73.26
2023-04-14T07:36:02.926Z,76.23
2023-04-14T07:36:55.427Z,75.08
2023-04-14T07:37:56.035Z,74.06
2023-04-14T07:38:56.096Z,77.10
2023-04-14T07:39:56.567Z,73.26
2023-04-14T07:40:08.522Z,69.42
2023-04-14T07:41:08.875Z,68.70
2023-04-14T07:42:09.376Z,70.81
2023-04-14T07:43:09.834Z,72.45
2023-04-14T07:44:10.251Z,70.22
2023-04-14T07:45:10.607Z,65.70
2023-04-14T07:46:11.229Z,64.13
2023-04-14T07:47:11.975Z,61.43
2023-04-14T07:48:12.477Z,61.30
2023-04-14T07:49:12.864Z,60.47
2023-04-14T07:50:13.385Z,61.12
2023-04-14T07:50:23.026Z,61.61
2023-04-14T07:51:23.840Z,62.30
2023-04-14T07:52:24.397Z,60.25
2023-04-14T07:53:24.832Z,56.99
2023-04-14T07:54:25.188Z,55.87
2023-04-14T07:55:27.510Z,59.80
2023-04-14T07:56:26.187Z,56.85
2023-04-14T07:57:26.685Z,55.88
2023-04-14T07:58:29.066Z,56.36
2023-04-14T07:59:27.372Z,56.82
2023-04-14T08:00:27.925Z,57.60
2023-04-14T08:01:28.394Z,59.47
2023-04-14T08:02:29.068Z,55.42
2023-04-14T08:02:39.171Z,53.52
2023-04-14T08:03:39.005Z,53.35
2023-04-14T08:04:39.167Z,53.93
2023-04-14T08:05:39.573Z,53.52
2023-04-14T08:06:39.567Z,54.96
2023-04-14T08:07:40.145Z,54.25
2023-04-14T08:08:40.605Z,57.19
2023-04-14T08:09:41.296Z,57.10
2023-04-14T08:10:41.744Z,60.42
2023-04-14T08:11:42.869Z,57.88
2023-04-14T08:12:43.292Z,57.32
2023-04-14T08:13:43.804Z,64.23
2023-04-14T08:14:43.842Z,59.96
2023-04-14T08:14:52.496Z,68.37
2023-04-14T08:15:52.610Z,67.95
2023-04-14T08:16:52.665Z,71.36
2023-04-14T08:17:53.093Z,73.08
2023-04-14T08:18:55.680Z,71.84
2023-04-14T08:19:54.564Z,72.27
2023-04-14T08:20:55.352Z,72.02
2023-04-14T08:21:55.865Z,73.95
2023-04-14T08:22:56.441Z,76.76
2023-04-14T08:23:57.034Z,73.13
2023-04-14T08:24:58.668Z,73.98
2023-04-14T08:25:58.211Z,73.22
2023-04-14T08:26:07.353Z,70.15
2023-04-14T08:27:07.786Z,69.85
2023-04-14T08:28:08.267Z,69.50
2023-04-14T08:29:08.596Z,71.31
2023-04-14T08:30:10.294Z,72.26
2023-04-14T08:31:09.903Z,71.25
2023-04-14T08:32:10.770Z,73.03
2023-04-14T08:33:11.492Z,69.85
2023-04-14T08:34:12.011Z,72.27
2023-04-14T08:35:35.328Z,75.54
2023-04-14T08:36:12.930Z,77.39
2023-04-14T08:37:13.481Z,77.27
2023-04-14T08:38:13.959Z,76.90
2023-04-14T08:38:22.619Z,73.44
2023-04-14T08:39:23.038Z,73.93
2023-04-14T08:40:23.558Z,73.15
2023-04-14T08:41:24.349Z,74.92
2023-04-14T08:42:25.727Z,75.73
2023-04-14T08:43:25.324Z,78.32
2023-04-14T08:44:25.734Z,77.56
2023-04-14T08:45:26.385Z,78.04
2023-04-14T08:46:26.941Z,77.43
2023-04-14T08:47:27.598Z,77.44
2023-04-14T08:48:28.011Z,78.51
2023-04-14T08:49:28.422Z,75.97
2023-04-14T08:49:37.044Z,79.80
2023-04-14T08:50:37.879Z,79.66
2023-04-14T08:51:38.641Z,76.35
2023-04-14T08:52:39.184Z,77.33
2023-04-14T08:53:39.690Z,80.32
2023-04-14T08:54:40.347Z,79.31
2023-04-14T08:55:41.035Z,80.54
2023-04-14T08:56:41.483Z,80.36
2023-04-14T08:57:41.917Z,80.81
2023-04-14T08:58:42.472Z,82.13
2023-04-14T08:59:43.115Z,82.71
2023-04-14T09:00:43.535Z,86.55
2023-04-14T09:01:44.003Z,86.03
2023-04-14T09:01:53.245Z,81.58
2023-04-14T09:02:53.890Z,81.93
2023-04-14T09:03:54.472Z,82.02
2023-04-14T09:04:55.261Z,80.34
2023-04-14T09:05:55.706Z,82.87
2023-04-14T09:06:57.202Z,86.92
2023-04-14T09:07:57.079Z,88.40
2023-04-14T09:08:57.477Z,86.98
2023-04-14T09:09:57.892Z,88.57
2023-04-14T09:10:58.252Z,89.58
2023-04-14T09:11:58.791Z,88.97
2023-04-14T09:12:59.538Z,91.92
2023-04-14T09:13:08.211Z,93.30
2023-04-14T09:14:08.679Z,92.51
2023-04-14T09:15:09.123Z,90.05
2023-04-14T09:16:09.118Z,89.53
2023-04-14T09:17:09.628Z,89.60
2023-04-14T09:18:10.535Z,91.62
2023-04-14T09:19:11.117Z,93.26
2023-04-14T09:20:38.636Z,92.51
2023-04-14T09:21:29.792Z,90.75
2023-04-14T09:22:12.976Z,89.83
2023-04-14T09:23:13.474Z,90.78
2023-04-14T09:24:14.411Z,89.95
2023-04-14T09:24:26.084Z,93.09
2023-04-14T09:25:26.441Z,92.94
2023-04-14T09:26:27.193Z,92.11
2023-04-14T09:27:27.366Z,89.49
2023-04-14T09:28:27.836Z,88.93
2023-04-14T09:29:28.264Z,87.16
2023-04-14T09:30:28.901Z,92.07
2023-04-14T09:31:29.407Z,92.75
2023-04-14T09:32:29.872Z,93.43
2023-04-14T09:33:30.294Z,93.75
2023-04-14T09:34:30.454Z,91.47
2023-04-14T09:35:30.860Z,92.15
2023-04-14T09:35:39.517Z,92.37
2023-04-14T09:36:39.937Z,92.09
2023-04-14T09:37:40.372Z,90.76
2023-04-14T09:38:40.889Z,86.45
2023-04-14T09:39:41.316Z,82.23
2023-04-14T09:40:41.751Z,80.44
2023-04-14T09:41:42.119Z,81.55
2023-04-14T09:42:42.492Z,79.82
2023-04-14T09:43:42.849Z,82.45
2023-04-14T09:44:43.206Z,81.31
2023-04-14T09:45:43.650Z,80.52
2023-04-14T09:46:44.340Z,80.54
2023-04-14T09:46:54.947Z,82.20
2023-04-14T09:47:53.291Z,83.12
2023-04-14T09:48:53.992Z,81.59
2023-04-14T09:49:54.430Z,79.92
2023-04-14T09:50:54.791Z,79.68
2023-04-14T09:51:55.350Z,80.72
2023-04-14T09:52:55.726Z,82.42
2023-04-14T09:53:56.499Z,82.86
2023-04-14T09:54:56.909Z,85.03
2023-04-14T09:55:57.258Z,83.59
2023-04-14T09:56:57.569Z,80.80
2023-04-14T09:57:57.828Z,82.28
2023-04-14T09:58:58.322Z,81.63
2023-04-14T09:59:07.463Z,84.03
2023-04-14T10:00:08.375Z,85.70
2023-04-14T10:01:08.753Z,86.84
2023-04-14T10:02:09.305Z,85.41
2023-04-14T10:03:10.149Z,86.95
2023-04-14T10:04:11.199Z,86.78
2023-04-14T10:05:11.832Z,82.78
2023-04-14T10:06:12.336Z,80.04
2023-04-14T10:07:12.777Z,76.51
2023-04-14T10:08:13.586Z,77.24
2023-04-14T10:09:14.044Z,75.66
2023-04-14T10:10:14.471Z,80.43
2023-04-14T10:10:26.191Z,83.59
2023-04-14T10:11:26.609Z,83.39
2023-04-14T10:12:26.940Z,81.49
2023-04-14T10:13:27.418Z,81.46
2023-04-14T10:14:27.697Z,80.36
2023-04-14T10:15:28.160Z,77.90
2023-04-14T10:16:29.603Z,75.97
2023-04-14T10:17:30.288Z,74.12
2023-04-14T10:18:29.229Z,70.98
2023-04-14T10:19:29.669Z,70.23
2023-04-14T10:20:30.155Z,72.34
2023-04-14T10:20:38.765Z,71.91
2023-04-14T10:21:39.122Z,72.37
2023-04-14T10:22:41.119Z,71.90
2023-04-14T10:23:39.957Z,72.77
2023-04-14T10:24:40.411Z,75.76
2023-04-14T10:25:41.233Z,77.13
2023-04-14T10:26:41.684Z,82.06
2023-04-14T10:27:42.558Z,81.52
2023-04-14T10:28:43.278Z,82.32
2023-04-14T10:29:43.681Z,80.10
2023-04-14T10:30:44.155Z,79.45
2023-04-14T10:30:52.784Z,78.40
2023-04-14T10:31:53.261Z,78.30
2023-04-14T10:32:53.612Z,78.98
2023-04-14T10:33:55.582Z,78.45
2023-04-14T10:34:55.054Z,80.95
2023-04-14T10:35:55.528Z,82.53
2023-04-14T10:36:55.984Z,82.66
2023-04-14T10:37:56.354Z,79.35
2023-04-14T10:38:56.767Z,75.96
2023-04-14T10:39:57.106Z,83.79
2023-04-14T10:40:57.698Z,82.61
2023-04-14T10:41:10.741Z,82.00
2023-04-14T10:42:11.088Z,81.19
2023-04-14T10:43:11.717Z,81.62
2023-04-14T10:44:12.044Z,78.20
2023-04-14T10:45:12.417Z,78.81
2023-04-14T10:46:12.930Z,83.37
2023-04-14T10:47:13.840Z,86.75
2023-04-14T10:48:14.187Z,88.11
2023-04-14T10:49:14.274Z,87.50
2023-04-14T10:50:14.807Z,85.29
2023-04-14T10:51:15.218Z,85.88
2023-04-14T10:52:15.682Z,87.03
2023-04-14T10:52:27.822Z,86.60
2023-04-14T10:53:28.152Z,86.36
2023-04-14T10:54:28.514Z,90.01
2023-04-14T10:55:28.837Z,91.57
2023-04-14T10:56:29.273Z,91.04
2023-04-14T10:57:29.743Z,91.12
2023-04-14T10:58:29.934Z,92.73
2023-04-14T10:59:30.368Z,92.49
2023-04-14T11:00:30.734Z,91.58
2023-04-14T11:01:31.322Z,90.82
2023-04-14T11:02:31.882Z,93.56
2023-04-14T11:02:40.690Z,94.69
2023-04-14T11:03:40.772Z,94.28
2023-04-14T11:04:41.051Z,94.13
2023-04-14T11:05:41.860Z,94.34
2023-04-14T11:06:42.431Z,94.63
2023-04-14T11:07:42.815Z,93.49
2023-04-14T11:08:43.209Z,94.20
2023-04-14T11:09:43.720Z,92.73
2023-04-14T11:10:44.066Z,95.25
2023-04-14T11:11:44.597Z,95.50
2023-04-14T11:12:45.097Z,94.84
2023-04-14T11:12:53.754Z,93.84
2023-04-14T11:13:54.588Z,93.81
2023-04-14T11:14:55.544Z,93.01
2023-04-14T11:15:56.007Z,95.04
2023-04-14T11:17:03.663Z,94.76
2023-04-14T11:17:56.888Z,96.01
2023-04-14T11:18:57.232Z,95.69
2023-04-14T11:19:57.653Z,98.67
2023-04-14T11:20:58.076Z,99.38
2023-04-14T11:21:58.518Z,98.32
2023-04-14T11:22:58.821Z,99.77
2023-04-14T11:23:10.394Z,101.82
2023-04-14T11:24:10.789Z,101.65
2023-04-14T11:25:11.169Z,101.61
2023-04-14T11:26:11.624Z,99.93
2023-04-14T11:27:12.072Z,100.91
2023-04-14T11:28:12.453Z,99.88
2023-04-14T11:29:12.801Z,98.85
2023-04-14T11:30:13.167Z,99.17
2023-04-14T11:31:13.974Z,98.27
2023-04-14T11:32:14.356Z,97.76
2023-04-14T11:33:14.785Z,95.83
2023-04-14T11:34:15.255Z,94.87
2023-04-14T11:35:15.717Z,94.00
2023-04-14T11:35:24.755Z,94.45
2023-04-14T11:36:24.932Z,94.53
2023-04-14T11:37:25.443Z,91.39
2023-04-14T11:38:26.141Z,89.75
2023-04-14T11:39:26.734Z,89.14
2023-04-14T11:40:27.340Z,89.39
2023-04-14T11:41:27.399Z,89.60
2023-04-14T11:42:28.007Z,89.75
2023-04-14T11:43:28.385Z,91.68
2023-04-14T11:44:28.704Z,93.81
2023-04-14T11:45:29.303Z,94.57
2023-04-14T11:46:29.743Z,95.11
2023-04-14T11:46:38.401Z,90.99
2023-04-14T11:47:38.839Z,90.48
2023-04-14T11:48:39.331Z,88.63
2023-04-14T11:49:39.789Z,91.58
2023-04-14T11:50:40.222Z,90.22